sensor_id;sensor_type;location;lat;lon;timestamp;temperature;humidity
19920;DHT22;10122;50.074;19.920;2023-07-30T00:01:56;20.60;99.90
19920;DHT22;10122;50.074;19.920;2023-07-30T00:04:22;20.60;99.90
19920;DHT22;10122;50.074;19.920;2023-07-30T00:06:47;20.60;99.90
19920;DHT22;10122;50.074;19.920;2023-07-30T00:09:13;20.50;99.90
19920;DHT22;10122;50.074;19.920;2023-07-30T00:11:39;20.40;99.90
19920;DHT22;10122;50.074;19.920;2023-07-30T00:14:05;20.40;99.90
19920;DHT22;10122;50.074;19.920;2023-07-30T00:16:30;20.30;99.90
19920;DHT22;10122;50.074;19.920;2023-07-30T00:18:56;20.30;99.90
19920;DHT22;10122;50.074;19.920;2023-07-30T00:21:22;20.30;99.90
19920;DHT22;10122;50.074;19.920;2023-07-30T00:23:48;20.40;99.90
19920;DHT22;10122;50.074;19.920;2023-07-30T00:26:14;20.40;99.90
19920;DHT22;10122;50.074;19.920;2023-07-30T00:28:39;20.40;99.90
19920;DHT22;10122;50.074;19.920;2023-07-30T00:31:05;20.40;99.90
19920;DHT22;10122;50.074;19.920;2023-07-30T00:33:31;20.40;99.90
19920;DHT22;10122;50.074;19.920;2023-07-30T00:35:56;20.40;99.90
19920;DHT22;10122;50.074;19.920;2023-07-30T00:38:22;20.30;99.90
19920;DHT22;10122;50.074;19.920;2023-07-30T00:40:48;20.30;99.90
19920;DHT22;10122;50.074;19.920;2023-07-30T00:43:13;20.20;99.90
19920;DHT22;10122;50.074;19.920;2023-07-30T00:45:41;20.20;99.90
19920;DHT22;10122;50.074;19.920;2023-07-30T00:48:08;20.20;99.90
19920;DHT22;10122;50.074;19.920;2023-07-30T00:50:34;20.20;99.90
19920;DHT22;10122;50.074;19.920;2023-07-30T00:53:00;20.30;99.90
19920;DHT22;10122;50.074;19.920;2023-07-30T00:55:26;20.40;99.90
19920;DHT22;10122;50.074;19.920;2023-07-30T00:57:52;20.40;99.90
19920;DHT22;10122;50.074;19.920;2023-07-30T01:00:18;20.40;99.90
19920;DHT22;10122;50.074;19.920;2023-07-30T01:02:44;20.40;99.90
19920;DHT22;10122;50.074;19.920;2023-07-30T01:05:09;20.40;99.90
19920;DHT22;10122;50.074;19.920;2023-07-30T01:07:36;20.30;99.90
19920;DHT22;10122;50.074;19.920;2023-07-30T01:10:02;20.20;99.90
19920;DHT22;10122;50.074;19.920;2023-07-30T01:12:29;20.10;99.90
19920;DHT22;10122;50.074;19.920;2023-07-30T01:14:57;20.10;99.90
19920;DHT22;10122;50.074;19.920;2023-07-30T01:17:23;20.10;99.90
19920;DHT22;10122;50.074;19.920;2023-07-30T01:19:49;20.20;99.90
19920;DHT22;10122;50.074;19.920;2023-07-30T01:22:16;20.20;99.90
19920;DHT22;10122;50.074;19.920;2023-07-30T01:24:41;20.20;99.90
19920;DHT22;10122;50.074;19.920;2023-07-30T01:27:08;20.30;99.90
19920;DHT22;10122;50.074;19.920;2023-07-30T01:29:52;20.30;99.90
19920;DHT22;10122;50.074;19.920;2023-07-30T01:32:26;20.30;99.90
19920;DHT22;10122;50.074;19.920;2023-07-30T01:34:56;20.30;99.90
19920;DHT22;10122;50.074;19.920;2023-07-30T01:37:23;20.40;99.90
19920;DHT22;10122;50.074;19.920;2023-07-30T01:39:50;20.40;99.90
19920;DHT22;10122;50.074;19.920;2023-07-30T01:42:17;20.40;99.90
19920;DHT22;10122;50.074;19.920;2023-07-30T01:44:43;20.40;99.90
19920;DHT22;10122;50.074;19.920;2023-07-30T01:47:09;20.40;99.90
19920;DHT22;10122;50.074;19.920;2023-07-30T01:49:35;20.40;99.90
19920;DHT22;10122;50.074;19.920;2023-07-30T01:52:00;20.40;99.90
19920;DHT22;10122;50.074;19.920;2023-07-30T01:54:26;20.40;99.90
19920;DHT22;10122;50.074;19.920;2023-07-30T01:56:52;20.40;99.90
19920;DHT22;10122;50.074;19.920;2023-07-30T01:59:18;20.40;99.90
19920;DHT22;10122;50.074;19.920;2023-07-30T02:01:44;20.40;99.90
19920;DHT22;10122;50.074;19.920;2023-07-30T02:04:10;20.30;99.90
19920;DHT22;10122;50.074;19.920;2023-07-30T02:06:35;20.30;99.90
19920;DHT22;10122;50.074;19.920;2023-07-30T02:09:01;20.20;99.90
19920;DHT22;10122;50.074;19.920;2023-07-30T02:11:27;20.20;99.90
19920;DHT22;10122;50.074;19.920;2023-07-30T02:13:54;20.20;99.90
19920;DHT22;10122;50.074;19.920;2023-07-30T02:16:19;20.10;99.90
19920;DHT22;10122;50.074;19.920;2023-07-30T02:18:45;20.10;99.90
19920;DHT22;10122;50.074;19.920;2023-07-30T02:21:11;20.10;99.90
19920;DHT22;10122;50.074;19.920;2023-07-30T02:23:36;20.00;99.90
19920;DHT22;10122;50.074;19.920;2023-07-30T02:26:02;20.00;99.90
19920;DHT22;10122;50.074;19.920;2023-07-30T02:28:28;20.00;99.90
19920;DHT22;10122;50.074;19.920;2023-07-30T02:30:53;20.00;99.90
19920;DHT22;10122;50.074;19.920;2023-07-30T02:33:19;20.00;99.90
19920;DHT22;10122;50.074;19.920;2023-07-30T02:35:45;20.00;99.90
19920;DHT22;10122;50.074;19.920;2023-07-30T02:38:10;20.10;99.90
19920;DHT22;10122;50.074;19.920;2023-07-30T02:40:36;20.10;99.90
19920;DHT22;10122;50.074;19.920;2023-07-30T02:43:02;20.00;99.90
19920;DHT22;10122;50.074;19.920;2023-07-30T02:45:28;20.00;99.90
19920;DHT22;10122;50.074;19.920;2023-07-30T02:47:53;20.00;99.90
19920;DHT22;10122;50.074;19.920;2023-07-30T02:50:19;20.00;99.90
19920;DHT22;10122;50.074;19.920;2023-07-30T02:52:45;19.90;99.90
19920;DHT22;10122;50.074;19.920;2023-07-30T02:55:10;19.90;99.90
19920;DHT22;10122;50.074;19.920;2023-07-30T02:57:36;19.80;99.90
19920;DHT22;10122;50.074;19.920;2023-07-30T03:00:02;19.70;99.90
19920;DHT22;10122;50.074;19.920;2023-07-30T03:02:29;19.70;99.90
19920;DHT22;10122;50.074;19.920;2023-07-30T03:04:55;19.70;99.90
19920;DHT22;10122;50.074;19.920;2023-07-30T03:07:21;19.70;99.90
19920;DHT22;10122;50.074;19.920;2023-07-30T03:09:46;19.70;99.90
19920;DHT22;10122;50.074;19.920;2023-07-30T03:12:12;19.70;99.90
19920;DHT22;10122;50.074;19.920;2023-07-30T03:14:38;19.70;99.90
19920;DHT22;10122;50.074;19.920;2023-07-30T03:17:04;19.70;99.90
19920;DHT22;10122;50.074;19.920;2023-07-30T03:19:31;19.70;99.90
19920;DHT22;10122;50.074;19.920;2023-07-30T03:21:56;19.70;99.90
19920;DHT22;10122;50.074;19.920;2023-07-30T03:24:22;19.70;99.90
19920;DHT22;10122;50.074;19.920;2023-07-30T03:26:48;19.80;99.90
19920;DHT22;10122;50.074;19.920;2023-07-30T03:29:15;20.00;99.90
19920;DHT22;10122;50.074;19.920;2023-07-30T03:31:41;20.20;99.90
19920;DHT22;10122;50.074;19.920;2023-07-30T03:34:07;20.30;99.90
19920;DHT22;10122;50.074;19.920;2023-07-30T03:36:33;20.40;99.90
19920;DHT22;10122;50.074;19.920;2023-07-30T03:38:58;20.50;99.90
19920;DHT22;10122;50.074;19.920;2023-07-30T03:41:24;20.30;99.90
19920;DHT22;10122;50.074;19.920;2023-07-30T03:43:50;20.20;99.90
19920;DHT22;10122;50.074;19.920;2023-07-30T03:46:16;20.10;99.90
19920;DHT22;10122;50.074;19.920;2023-07-30T03:48:42;19.90;99.90
19920;DHT22;10122;50.074;19.920;2023-07-30T03:51:08;19.90;99.90
19920;DHT22;10122;50.074;19.920;2023-07-30T03:53:34;19.90;99.90
19920;DHT22;10122;50.074;19.920;2023-07-30T03:55:59;19.80;99.90
19920;DHT22;10122;50.074;19.920;2023-07-30T03:58:25;19.80;99.90
19920;DHT22;10122;50.074;19.920;2023-07-30T04:00:51;19.80;99.90
19920;DHT22;10122;50.074;19.920;2023-07-30T04:03:16;19.80;99.90
19920;DHT22;10122;50.074;19.920;2023-07-30T04:05:42;19.80;99.90
19920;DHT22;10122;50.074;19.920;2023-07-30T04:08:08;19.90;99.90
19920;DHT22;10122;50.074;19.920;2023-07-30T04:10:33;19.90;99.90
19920;DHT22;10122;50.074;19.920;2023-07-30T04:13:00;19.90;99.90
19920;DHT22;10122;50.074;19.920;2023-07-30T04:15:25;19.90;99.90
19920;DHT22;10122;50.074;19.920;2023-07-30T04:17:51;19.90;99.90
19920;DHT22;10122;50.074;19.920;2023-07-30T04:20:17;19.90;99.90
19920;DHT22;10122;50.074;19.920;2023-07-30T04:22:43;19.90;99.90
19920;DHT22;10122;50.074;19.920;2023-07-30T04:25:09;19.90;99.90
19920;DHT22;10122;50.074;19.920;2023-07-30T04:27:36;19.90;99.90
19920;DHT22;10122;50.074;19.920;2023-07-30T04:30:03;19.80;99.90
19920;DHT22;10122;50.074;19.920;2023-07-30T04:32:30;19.90;99.90
19920;DHT22;10122;50.074;19.920;2023-07-30T04:34:55;19.90;99.90
19920;DHT22;10122;50.074;19.920;2023-07-30T04:37:21;20.00;99.90
19920;DHT22;10122;50.074;19.920;2023-07-30T04:39:47;20.00;99.90
19920;DHT22;10122;50.074;19.920;2023-07-30T04:42:13;20.10;99.90
19920;DHT22;10122;50.074;19.920;2023-07-30T04:44:40;20.20;99.90
19920;DHT22;10122;50.074;19.920;2023-07-30T04:47:06;20.30;99.90
19920;DHT22;10122;50.074;19.920;2023-07-30T04:49:32;20.30;99.90
19920;DHT22;10122;50.074;19.920;2023-07-30T04:51:58;20.40;99.90
19920;DHT22;10122;50.074;19.920;2023-07-30T04:54:24;20.40;99.90
19920;DHT22;10122;50.074;19.920;2023-07-30T04:56:50;20.50;99.90
19920;DHT22;10122;50.074;19.920;2023-07-30T04:59:15;20.50;99.90
19920;DHT22;10122;50.074;19.920;2023-07-30T05:01:41;20.50;99.90
19920;DHT22;10122;50.074;19.920;2023-07-30T05:04:07;20.50;99.90
19920;DHT22;10122;50.074;19.920;2023-07-30T05:06:32;20.60;99.90
19920;DHT22;10122;50.074;19.920;2023-07-30T05:08:58;20.60;99.90
19920;DHT22;10122;50.074;19.920;2023-07-30T05:11:24;20.70;99.90
19920;DHT22;10122;50.074;19.920;2023-07-30T05:13:50;20.70;99.90
19920;DHT22;10122;50.074;19.920;2023-07-30T05:16:15;20.70;99.90
19920;DHT22;10122;50.074;19.920;2023-07-30T05:18:41;20.80;99.90
19920;DHT22;10122;50.074;19.920;2023-07-30T05:21:07;20.90;99.90
19920;DHT22;10122;50.074;19.920;2023-07-30T05:23:32;21.00;99.90
19920;DHT22;10122;50.074;19.920;2023-07-30T05:25:58;21.10;99.90
19920;DHT22;10122;50.074;19.920;2023-07-30T05:28:24;21.10;99.90
19920;DHT22;10122;50.074;19.920;2023-07-30T05:30:49;21.10;99.90
19920;DHT22;10122;50.074;19.920;2023-07-30T05:33:15;21.20;99.90
19920;DHT22;10122;50.074;19.920;2023-07-30T05:35:41;21.20;99.90
19920;DHT22;10122;50.074;19.920;2023-07-30T05:38:07;21.30;99.90
19920;DHT22;10122;50.074;19.920;2023-07-30T05:40:33;21.30;99.90
19920;DHT22;10122;50.074;19.920;2023-07-30T05:42:59;21.30;99.90
19920;DHT22;10122;50.074;19.920;2023-07-30T05:45:26;21.30;99.90
19920;DHT22;10122;50.074;19.920;2023-07-30T05:47:52;21.30;99.90
19920;DHT22;10122;50.074;19.920;2023-07-30T05:50:17;21.40;99.90
19920;DHT22;10122;50.074;19.920;2023-07-30T05:52:44;21.50;99.90
19920;DHT22;10122;50.074;19.920;2023-07-30T05:55:09;21.50;99.90
19920;DHT22;10122;50.074;19.920;2023-07-30T05:57:35;21.50;99.90
19920;DHT22;10122;50.074;19.920;2023-07-30T06:00:01;21.50;99.90
19920;DHT22;10122;50.074;19.920;2023-07-30T06:02:27;21.50;99.90
19920;DHT22;10122;50.074;19.920;2023-07-30T06:04:52;21.60;99.90
19920;DHT22;10122;50.074;19.920;2023-07-30T06:07:18;21.60;99.90
19920;DHT22;10122;50.074;19.920;2023-07-30T06:09:44;21.60;99.90
19920;DHT22;10122;50.074;19.920;2023-07-30T06:12:11;21.60;99.90
19920;DHT22;10122;50.074;19.920;2023-07-30T06:14:36;21.60;99.90
19920;DHT22;10122;50.074;19.920;2023-07-30T06:17:02;21.60;99.90
19920;DHT22;10122;50.074;19.920;2023-07-30T06:19:28;21.60;99.90
19920;DHT22;10122;50.074;19.920;2023-07-30T06:21:54;21.80;99.90
19920;DHT22;10122;50.074;19.920;2023-07-30T06:24:20;21.90;99.90
19920;DHT22;10122;50.074;19.920;2023-07-30T06:26:46;22.10;99.90
19920;DHT22;10122;50.074;19.920;2023-07-30T06:29:12;22.60;99.90
19920;DHT22;10122;50.074;19.920;2023-07-30T06:31:37;23.10;99.90
19920;DHT22;10122;50.074;19.920;2023-07-30T06:34:04;23.70;99.90
19920;DHT22;10122;50.074;19.920;2023-07-30T06:36:30;24.60;99.90
19920;DHT22;10122;50.074;19.920;2023-07-30T06:38:55;25.40;99.90
19920;DHT22;10122;50.074;19.920;2023-07-30T06:41:21;26.00;99.90
19920;DHT22;10122;50.074;19.920;2023-07-30T06:43:47;26.50;99.90
19920;DHT22;10122;50.074;19.920;2023-07-30T06:46:13;26.70;99.90
19920;DHT22;10122;50.074;19.920;2023-07-30T06:48:38;26.80;99.90
19920;DHT22;10122;50.074;19.920;2023-07-30T06:51:06;27.10;99.90
19920;DHT22;10122;50.074;19.920;2023-07-30T06:53:32;27.50;99.90
19920;DHT22;10122;50.074;19.920;2023-07-30T06:55:58;27.80;99.90
19920;DHT22;10122;50.074;19.920;2023-07-30T06:58:24;28.00;99.90
19920;DHT22;10122;50.074;19.920;2023-07-30T07:00:49;28.10;99.90
19920;DHT22;10122;50.074;19.920;2023-07-30T07:03:15;28.40;99.90
19920;DHT22;10122;50.074;19.920;2023-07-30T07:05:41;28.60;99.90
19920;DHT22;10122;50.074;19.920;2023-07-30T07:08:06;28.70;99.90
19920;DHT22;10122;50.074;19.920;2023-07-30T07:10:32;28.70;99.90
19920;DHT22;10122;50.074;19.920;2023-07-30T07:12:58;28.90;99.90
19920;DHT22;10122;50.074;19.920;2023-07-30T07:15:23;29.10;99.90
19920;DHT22;10122;50.074;19.920;2023-07-30T07:17:49;29.30;99.90
19920;DHT22;10122;50.074;19.920;2023-07-30T07:20:15;29.30;99.90
19920;DHT22;10122;50.074;19.920;2023-07-30T07:22:40;29.40;99.90
19920;DHT22;10122;50.074;19.920;2023-07-30T07:25:06;29.70;99.90
19920;DHT22;10122;50.074;19.920;2023-07-30T07:27:32;29.60;99.90
19920;DHT22;10122;50.074;19.920;2023-07-30T07:29:58;29.70;99.80
19920;DHT22;10122;50.074;19.920;2023-07-30T07:32:24;29.10;99.00
19920;DHT22;10122;50.074;19.920;2023-07-30T07:34:50;28.60;99.80
19920;DHT22;10122;50.074;19.920;2023-07-30T07:37:16;28.30;99.90
19920;DHT22;10122;50.074;19.920;2023-07-30T07:39:44;28.10;99.90
19920;DHT22;10122;50.074;19.920;2023-07-30T07:42:10;28.10;99.90
19920;DHT22;10122;50.074;19.920;2023-07-30T07:44:36;28.10;99.90
19920;DHT22;10122;50.074;19.920;2023-07-30T07:47:02;28.40;99.90
19920;DHT22;10122;50.074;19.920;2023-07-30T07:49:28;28.50;99.90
19920;DHT22;10122;50.074;19.920;2023-07-30T07:51:53;28.90;99.90
19920;DHT22;10122;50.074;19.920;2023-07-30T07:54:19;28.60;99.90
19920;DHT22;10122;50.074;19.920;2023-07-30T07:56:45;28.30;99.90
19920;DHT22;10122;50.074;19.920;2023-07-30T07:59:10;28.20;99.90
19920;DHT22;10122;50.074;19.920;2023-07-30T08:01:36;28.30;99.90
19920;DHT22;10122;50.074;19.920;2023-07-30T08:04:02;28.50;99.90
19920;DHT22;10122;50.074;19.920;2023-07-30T08:06:28;28.80;99.90
19920;DHT22;10122;50.074;19.920;2023-07-30T08:08:53;29.20;99.90
19920;DHT22;10122;50.074;19.920;2023-07-30T08:11:19;29.30;99.90
19920;DHT22;10122;50.074;19.920;2023-07-30T08:13:45;28.90;99.90
19920;DHT22;10122;50.074;19.920;2023-07-30T08:16:11;28.80;99.90
19920;DHT22;10122;50.074;19.920;2023-07-30T08:18:37;28.60;99.90
19920;DHT22;10122;50.074;19.920;2023-07-30T08:21:03;28.70;99.90
19920;DHT22;10122;50.074;19.920;2023-07-30T08:23:28;28.60;99.90
19920;DHT22;10122;50.074;19.920;2023-07-30T08:25:54;28.60;99.90
19920;DHT22;10122;50.074;19.920;2023-07-30T08:28:20;28.80;99.90
19920;DHT22;10122;50.074;19.920;2023-07-30T08:30:46;29.00;99.90
19920;DHT22;10122;50.074;19.920;2023-07-30T08:33:12;29.20;99.90
19920;DHT22;10122;50.074;19.920;2023-07-30T08:35:38;29.50;99.90
19920;DHT22;10122;50.074;19.920;2023-07-30T08:38:03;29.90;99.90
19920;DHT22;10122;50.074;19.920;2023-07-30T08:40:29;29.70;99.80
19920;DHT22;10122;50.074;19.920;2023-07-30T08:42:55;29.50;99.40
19920;DHT22;10122;50.074;19.920;2023-07-30T08:45:21;29.10;99.90
19920;DHT22;10122;50.074;19.920;2023-07-30T08:47:47;29.10;99.90
19920;DHT22;10122;50.074;19.920;2023-07-30T08:50:13;29.20;99.90
19920;DHT22;10122;50.074;19.920;2023-07-30T08:52:40;29.00;99.90
19920;DHT22;10122;50.074;19.920;2023-07-30T08:55:06;29.00;99.90
19920;DHT22;10122;50.074;19.920;2023-07-30T08:57:33;29.10;99.90
19920;DHT22;10122;50.074;19.920;2023-07-30T09:00:11;29.20;99.90
19920;DHT22;10122;50.074;19.920;2023-07-30T09:02:54;29.30;99.70
19920;DHT22;10122;50.074;19.920;2023-07-30T09:05:20;29.30;99.30
19920;DHT22;10122;50.074;19.920;2023-07-30T09:07:47;29.10;99.10
19920;DHT22;10122;50.074;19.920;2023-07-30T09:10:14;28.90;99.30
19920;DHT22;10122;50.074;19.920;2023-07-30T09:12:39;28.70;99.60
19920;DHT22;10122;50.074;19.920;2023-07-30T09:15:06;28.70;99.50
19920;DHT22;10122;50.074;19.920;2023-07-30T09:17:33;28.70;99.30
19920;DHT22;10122;50.074;19.920;2023-07-30T09:20:00;28.80;99.80
19920;DHT22;10122;50.074;19.920;2023-07-30T09:22:27;28.90;99.90
19920;DHT22;10122;50.074;19.920;2023-07-30T09:24:57;29.00;99.90
19920;DHT22;10122;50.074;19.920;2023-07-30T09:27:25;28.90;99.80
19920;DHT22;10122;50.074;19.920;2023-07-30T09:30:02;28.90;99.90
19920;DHT22;10122;50.074;19.920;2023-07-30T09:32:31;28.90;99.10
19920;DHT22;10122;50.074;19.920;2023-07-30T09:35:07;28.80;99.90
19920;DHT22;10122;50.074;19.920;2023-07-30T09:37:36;29.00;99.90
19920;DHT22;10122;50.074;19.920;2023-07-30T09:40:05;29.10;99.70
19920;DHT22;10122;50.074;19.920;2023-07-30T09:42:31;29.20;99.40
19920;DHT22;10122;50.074;19.920;2023-07-30T09:44:59;29.20;99.30
19920;DHT22;10122;50.074;19.920;2023-07-30T09:47:30;29.40;99.10
19920;DHT22;10122;50.074;19.920;2023-07-30T09:49:56;29.30;98.40
19920;DHT22;10122;50.074;19.920;2023-07-30T09:52:22;29.20;98.00
19920;DHT22;10122;50.074;19.920;2023-07-30T09:54:49;29.20;98.30
19920;DHT22;10122;50.074;19.920;2023-07-30T09:57:17;29.10;97.70
19920;DHT22;10122;50.074;19.920;2023-07-30T09:59:43;29.10;98.20
19920;DHT22;10122;50.074;19.920;2023-07-30T10:02:10;29.20;98.40
19920;DHT22;10122;50.074;19.920;2023-07-30T10:04:42;29.20;98.50
19920;DHT22;10122;50.074;19.920;2023-07-30T10:07:12;29.10;98.20
19920;DHT22;10122;50.074;19.920;2023-07-30T10:09:42;29.10;98.00
19920;DHT22;10122;50.074;19.920;2023-07-30T10:12:21;29.20;98.30
19920;DHT22;10122;50.074;19.920;2023-07-30T10:14:48;29.00;98.70
19920;DHT22;10122;50.074;19.920;2023-07-30T10:17:13;29.00;99.00
19920;DHT22;10122;50.074;19.920;2023-07-30T10:19:39;28.90;99.20
19920;DHT22;10122;50.074;19.920;2023-07-30T10:24:40;28.50;99.40
19920;DHT22;10122;50.074;19.920;2023-07-30T10:27:07;28.60;99.60
19920;DHT22;10122;50.074;19.920;2023-07-30T10:29:35;28.80;99.80
19920;DHT22;10122;50.074;19.920;2023-07-30T10:32:05;28.80;99.40
19920;DHT22;10122;50.074;19.920;2023-07-30T10:34:49;28.90;99.20
19920;DHT22;10122;50.074;19.920;2023-07-30T10:37:18;29.00;99.00
19920;DHT22;10122;50.074;19.920;2023-07-30T10:39:48;28.80;98.50
19920;DHT22;10122;50.074;19.920;2023-07-30T10:42:14;28.70;98.60
19920;DHT22;10122;50.074;19.920;2023-07-30T10:44:44;28.80;98.80
19920;DHT22;10122;50.074;19.920;2023-07-30T10:47:10;28.70;98.50
19920;DHT22;10122;50.074;19.920;2023-07-30T10:49:37;28.70;98.80
19920;DHT22;10122;50.074;19.920;2023-07-30T10:52:04;28.80;98.40
19920;DHT22;10122;50.074;19.920;2023-07-30T10:54:36;28.90;98.30
19920;DHT22;10122;50.074;19.920;2023-07-30T10:57:05;28.60;98.50
19920;DHT22;10122;50.074;19.920;2023-07-30T10:59:35;28.50;98.70
19920;DHT22;10122;50.074;19.920;2023-07-30T11:02:02;28.40;98.70
19920;DHT22;10122;50.074;19.920;2023-07-30T11:04:28;28.30;98.80
19920;DHT22;10122;50.074;19.920;2023-07-30T11:06:53;28.30;99.00
19920;DHT22;10122;50.074;19.920;2023-07-30T11:09:24;28.50;98.80
19920;DHT22;10122;50.074;19.920;2023-07-30T11:11:52;28.70;98.90
19920;DHT22;10122;50.074;19.920;2023-07-30T11:14:19;28.50;98.40
19920;DHT22;10122;50.074;19.920;2023-07-30T11:16:53;28.50;98.40
19920;DHT22;10122;50.074;19.920;2023-07-30T11:19:19;28.50;98.30
19920;DHT22;10122;50.074;19.920;2023-07-30T11:21:51;28.30;97.90
19920;DHT22;10122;50.074;19.920;2023-07-30T11:24:17;28.20;98.40
19920;DHT22;10122;50.074;19.920;2023-07-30T11:26:43;28.20;98.90
19920;DHT22;10122;50.074;19.920;2023-07-30T11:29:15;28.20;98.40
19920;DHT22;10122;50.074;19.920;2023-07-30T11:31:43;28.20;98.20
19920;DHT22;10122;50.074;19.920;2023-07-30T11:34:09;28.30;98.20
19920;DHT22;10122;50.074;19.920;2023-07-30T11:36:35;28.20;97.90
19920;DHT22;10122;50.074;19.920;2023-07-30T11:39:01;28.20;98.00
19920;DHT22;10122;50.074;19.920;2023-07-30T11:41:27;28.30;97.80
19920;DHT22;10122;50.074;19.920;2023-07-30T11:43:54;28.40;97.80
19920;DHT22;10122;50.074;19.920;2023-07-30T11:46:20;28.30;97.20
19920;DHT22;10122;50.074;19.920;2023-07-30T11:48:50;28.20;97.20
19920;DHT22;10122;50.074;19.920;2023-07-30T11:51:23;28.20;97.50
19920;DHT22;10122;50.074;19.920;2023-07-30T11:53:53;28.30;97.80
19920;DHT22;10122;50.074;19.920;2023-07-30T11:56:21;28.30;97.90
19920;DHT22;10122;50.074;19.920;2023-07-30T11:58:48;28.20;97.80
19920;DHT22;10122;50.074;19.920;2023-07-30T12:01:17;28.10;97.40
19920;DHT22;10122;50.074;19.920;2023-07-30T12:03:43;27.70;97.80
19920;DHT22;10122;50.074;19.920;2023-07-30T12:06:10;27.50;98.80
19920;DHT22;10122;50.074;19.920;2023-07-30T12:08:37;27.50;99.20
19920;DHT22;10122;50.074;19.920;2023-07-30T12:11:04;27.50;99.20
19920;DHT22;10122;50.074;19.920;2023-07-30T12:13:31;27.60;99.30
19920;DHT22;10122;50.074;19.920;2023-07-30T12:15:57;27.60;98.90
19920;DHT22;10122;50.074;19.920;2023-07-30T12:18:23;27.50;98.70
19920;DHT22;10122;50.074;19.920;2023-07-30T12:20:50;27.60;98.70
19920;DHT22;10122;50.074;19.920;2023-07-30T12:23:16;27.70;98.70
19920;DHT22;10122;50.074;19.920;2023-07-30T12:25:42;27.80;98.70
19920;DHT22;10122;50.074;19.920;2023-07-30T12:28:08;27.70;98.40
19920;DHT22;10122;50.074;19.920;2023-07-30T12:30:34;27.60;98.90
19920;DHT22;10122;50.074;19.920;2023-07-30T12:33:01;27.40;99.00
19920;DHT22;10122;50.074;19.920;2023-07-30T12:35:26;27.30;99.00
19920;DHT22;10122;50.074;19.920;2023-07-30T12:37:52;27.30;99.40
19920;DHT22;10122;50.074;19.920;2023-07-30T12:40:18;27.20;99.80
19920;DHT22;10122;50.074;19.920;2023-07-30T12:42:44;27.10;99.90
19920;DHT22;10122;50.074;19.920;2023-07-30T12:45:10;27.10;99.90
19920;DHT22;10122;50.074;19.920;2023-07-30T12:47:35;26.90;99.90
19920;DHT22;10122;50.074;19.920;2023-07-30T12:50:02;26.80;99.90
19920;DHT22;10122;50.074;19.920;2023-07-30T12:52:28;26.80;99.90
19920;DHT22;10122;50.074;19.920;2023-07-30T12:54:54;26.70;99.90
19920;DHT22;10122;50.074;19.920;2023-07-30T12:57:20;26.70;99.90
19920;DHT22;10122;50.074;19.920;2023-07-30T12:59:45;26.70;99.90
19920;DHT22;10122;50.074;19.920;2023-07-30T13:02:11;26.70;99.90
19920;DHT22;10122;50.074;19.920;2023-07-30T13:04:37;26.80;99.90
19920;DHT22;10122;50.074;19.920;2023-07-30T13:07:02;26.80;99.90
19920;DHT22;10122;50.074;19.920;2023-07-30T13:09:28;26.90;99.90
19920;DHT22;10122;50.074;19.920;2023-07-30T13:11:54;26.90;99.90
19920;DHT22;10122;50.074;19.920;2023-07-30T13:14:20;26.90;99.90
19920;DHT22;10122;50.074;19.920;2023-07-30T13:16:46;26.90;99.90
19920;DHT22;10122;50.074;19.920;2023-07-30T13:19:11;26.90;99.90
19920;DHT22;10122;50.074;19.920;2023-07-30T13:21:37;26.90;99.90
19920;DHT22;10122;50.074;19.920;2023-07-30T13:24:03;26.90;99.90
19920;DHT22;10122;50.074;19.920;2023-07-30T13:26:29;27.00;99.90
19920;DHT22;10122;50.074;19.920;2023-07-30T13:28:54;27.00;99.90
19920;DHT22;10122;50.074;19.920;2023-07-30T13:31:20;27.00;99.90
19920;DHT22;10122;50.074;19.920;2023-07-30T13:33:46;27.00;99.90
19920;DHT22;10122;50.074;19.920;2023-07-30T13:36:13;27.10;99.90
19920;DHT22;10122;50.074;19.920;2023-07-30T13:38:39;27.20;99.90
19920;DHT22;10122;50.074;19.920;2023-07-30T13:41:06;27.20;99.90
19920;DHT22;10122;50.074;19.920;2023-07-30T13:43:32;27.20;99.90
19920;DHT22;10122;50.074;19.920;2023-07-30T13:45:58;27.10;99.70
19920;DHT22;10122;50.074;19.920;2023-07-30T13:48:25;27.10;99.80
19920;DHT22;10122;50.074;19.920;2023-07-30T13:50:50;27.20;99.90
19920;DHT22;10122;50.074;19.920;2023-07-30T13:53:17;27.20;99.60
19920;DHT22;10122;50.074;19.920;2023-07-30T13:55:43;27.20;99.50
19920;DHT22;10122;50.074;19.920;2023-07-30T13:58:09;27.10;98.60
19920;DHT22;10122;50.074;19.920;2023-07-30T14:00:35;27.00;98.20
19920;DHT22;10122;50.074;19.920;2023-07-30T14:03:01;26.90;98.30
19920;DHT22;10122;50.074;19.920;2023-07-30T14:05:26;26.80;98.00
19920;DHT22;10122;50.074;19.920;2023-07-30T14:07:56;26.80;98.10
19920;DHT22;10122;50.074;19.920;2023-07-30T14:10:23;26.80;98.50
19920;DHT22;10122;50.074;19.920;2023-07-30T14:12:49;26.80;98.30
19920;DHT22;10122;50.074;19.920;2023-07-30T14:15:15;26.80;98.70
19920;DHT22;10122;50.074;19.920;2023-07-30T14:17:41;26.80;98.70
19920;DHT22;10122;50.074;19.920;2023-07-30T14:20:08;26.80;98.20
19920;DHT22;10122;50.074;19.920;2023-07-30T14:22:34;26.60;97.70
19920;DHT22;10122;50.074;19.920;2023-07-30T14:25:01;26.40;98.10
19920;DHT22;10122;50.074;19.920;2023-07-30T14:27:27;26.40;98.40
19920;DHT22;10122;50.074;19.920;2023-07-30T14:29:53;26.40;98.70
19920;DHT22;10122;50.074;19.920;2023-07-30T14:32:23;26.40;98.60
19920;DHT22;10122;50.074;19.920;2023-07-30T14:34:49;26.30;98.20
19920;DHT22;10122;50.074;19.920;2023-07-30T14:37:14;26.30;97.80
19920;DHT22;10122;50.074;19.920;2023-07-30T14:39:40;26.30;97.90
19920;DHT22;10122;50.074;19.920;2023-07-30T14:42:07;26.30;98.40
19920;DHT22;10122;50.074;19.920;2023-07-30T14:44:33;26.40;98.20
19920;DHT22;10122;50.074;19.920;2023-07-30T14:46:59;26.50;98.20
19920;DHT22;10122;50.074;19.920;2023-07-30T14:49:26;26.50;98.20
19920;DHT22;10122;50.074;19.920;2023-07-30T14:51:52;26.50;98.30
19920;DHT22;10122;50.074;19.920;2023-07-30T14:54:18;26.50;98.30
19920;DHT22;10122;50.074;19.920;2023-07-30T14:56:44;26.60;98.30
19920;DHT22;10122;50.074;19.920;2023-07-30T14:59:10;26.50;98.40
19920;DHT22;10122;50.074;19.920;2023-07-30T15:01:35;26.40;98.80
19920;DHT22;10122;50.074;19.920;2023-07-30T15:04:02;26.40;98.90
19920;DHT22;10122;50.074;19.920;2023-07-30T15:06:30;26.40;99.00
19920;DHT22;10122;50.074;19.920;2023-07-30T15:08:56;26.40;99.50
19920;DHT22;10122;50.074;19.920;2023-07-30T15:11:22;26.40;99.30
19920;DHT22;10122;50.074;19.920;2023-07-30T15:13:47;26.40;99.40